Terminal Aerodrome Forecast
Issued by NWS

Current Version | Previous Version | Graphics & Text | Print | Product List | Glossary On
Versions: 1 2 3 4 5 6 7 8 9 10 11 12 13 14 15 16 17 18 19 20 21 22 23 24 25 26 27 28 29 30
000
FTUS41 KILN 011800 AAA
TAFLUK
TAF AMD
KLUK 011813Z 0118/0218 VRB04KT P6SM SCT040 BKN250
     FM020000 02004KT P6SM SCT050 SCT120 BKN250
     FM020600 09005KT P6SM BKN050
     FM020900 VRB04KT 3SM BR BKN050
     FM021300 VRB04KT P6SM VCSH SCT020 BKN035=

USA.gov is the U.S. government's official web portal to all federal, state and local government web resources and services.